Wilmette, Illinois
Current Conditions -  °F | °C
As of 8:52 PM on Wednesday 26 Nov 2014 (Local Time) from KPWK Reporting Station
Haze Haze  
Wind Chill: 20°   Ceiling: 2700
Heat Index: 28°   Visibility: 6mi
Dew Point: 23°   Wind: 8mph
Humidity: 81%   Direction: 320°NW
Pressure: 30.18"   Gusts: NA
Location:  42.08°N, 87.71°W
Report Text: KPWK 270252Z 32007KT 6SM HZ OVC027 M02/M05 A3018 RMK AO2 SLP228 T10221050 53011
Loading
Personal Weather Stations






























Interactive Weather Map New forecast layout! Learn more

10-Day Weather Forecast

Advertisements
Track Severe Weather on mobile